sensor_id;sensor_type;location;lat;lon;timestamp;P1;durP1;ratioP1;P2;durP2;ratioP2
75427;SDS011;64008;55.612;37.698;2023-03-16T00:00:45;8.68;;;4.43;;
75427;SDS011;64008;55.612;37.698;2023-03-16T00:03:11;10.15;;;5.82;;
75427;SDS011;64008;55.612;37.698;2023-03-16T00:05:44;7.82;;;5.00;;
75427;SDS011;64008;55.612;37.698;2023-03-16T00:08:13;7.95;;;5.15;;
75427;SDS011;64008;55.612;37.698;2023-03-16T00:10:39;8.45;;;5.30;;
75427;SDS011;64008;55.612;37.698;2023-03-16T00:13:11;8.68;;;5.03;;
75427;SDS011;64008;55.612;37.698;2023-03-16T00:15:40;9.73;;;5.32;;
75427;SDS011;64008;55.612;37.698;2023-03-16T00:20:32;7.70;;;4.50;;
75427;SDS011;64008;55.612;37.698;2023-03-16T00:22:57;9.75;;;5.35;;
75427;SDS011;64008;55.612;37.698;2023-03-16T00:25:23;8.40;;;4.97;;
75427;SDS011;64008;55.612;37.698;2023-03-16T00:27:49;8.07;;;4.53;;
75427;SDS011;64008;55.612;37.698;2023-03-16T00:30:14;8.88;;;4.90;;
75427;SDS011;64008;55.612;37.698;2023-03-16T00:32:40;8.55;;;4.78;;
75427;SDS011;64008;55.612;37.698;2023-03-16T00:35:06;9.00;;;5.07;;
75427;SDS011;64008;55.612;37.698;2023-03-16T00:37:32;8.15;;;5.15;;
75427;SDS011;64008;55.612;37.698;2023-03-16T00:39:58;9.90;;;4.40;;
75427;SDS011;64008;55.612;37.698;2023-03-16T00:42:25;8.07;;;4.70;;
75427;SDS011;64008;55.612;37.698;2023-03-16T00:44:52;9.80;;;5.30;;
75427;SDS011;64008;55.612;37.698;2023-03-16T00:47:22;9.13;;;5.07;;
75427;SDS011;64008;55.612;37.698;2023-03-16T00:49:52;7.32;;;4.15;;
75427;SDS011;64008;55.612;37.698;2023-03-16T00:52:18;9.85;;;4.97;;
75427;SDS011;64008;55.612;37.698;2023-03-16T00:54:45;9.40;;;4.72;;
75427;SDS011;64008;55.612;37.698;2023-03-16T00:57:15;7.28;;;4.40;;
75427;SDS011;64008;55.612;37.698;2023-03-16T00:59:45;7.82;;;4.85;;
75427;SDS011;64008;55.612;37.698;2023-03-16T01:02:12;7.47;;;4.68;;
75427;SDS011;64008;55.612;37.698;2023-03-16T01:04:38;11.15;;;4.80;;
75427;SDS011;64008;55.612;37.698;2023-03-16T01:07:06;7.78;;;4.82;;
75427;SDS011;64008;55.612;37.698;2023-03-16T01:09:33;7.55;;;4.55;;
75427;SDS011;64008;55.612;37.698;2023-03-16T01:12:05;13.38;;;5.63;;
75427;SDS011;64008;55.612;37.698;2023-03-16T01:14:33;8.40;;;4.72;;
75427;SDS011;64008;55.612;37.698;2023-03-16T01:17:00;8.73;;;4.65;;
75427;SDS011;64008;55.612;37.698;2023-03-16T01:19:26;7.15;;;3.95;;
75427;SDS011;64008;55.612;37.698;2023-03-16T01:21:51;8.70;;;4.70;;
75427;SDS011;64008;55.612;37.698;2023-03-16T01:24:17;10.55;;;4.78;;
75427;SDS011;64008;55.612;37.698;2023-03-16T01:26:43;6.88;;;4.40;;
75427;SDS011;64008;55.612;37.698;2023-03-16T01:29:09;8.18;;;4.10;;
75427;SDS011;64008;55.612;37.698;2023-03-16T01:31:36;8.85;;;4.68;;
75427;SDS011;64008;55.612;37.698;2023-03-16T01:34:02;7.82;;;4.10;;
75427;SDS011;64008;55.612;37.698;2023-03-16T01:36:28;8.48;;;4.28;;
75427;SDS011;64008;55.612;37.698;2023-03-16T01:38:55;7.60;;;4.05;;
75427;SDS011;64008;55.612;37.698;2023-03-16T01:41:21;10.55;;;4.25;;
75427;SDS011;64008;55.612;37.698;2023-03-16T01:43:46;7.13;;;3.97;;
75427;SDS011;64008;55.612;37.698;2023-03-16T01:46:19;9.02;;;4.35;;
75427;SDS011;64008;55.612;37.698;2023-03-16T01:48:59;8.18;;;4.45;;
75427;SDS011;64008;55.612;37.698;2023-03-16T01:54:08;10.02;;;4.28;;
75427;SDS011;64008;55.612;37.698;2023-03-16T01:59:43;8.85;;;4.32;;
75427;SDS011;64008;55.612;37.698;2023-03-16T02:02:12;12.93;;;3.88;;
75427;SDS011;64008;55.612;37.698;2023-03-16T02:04:44;7.63;;;4.03;;
75427;SDS011;64008;55.612;37.698;2023-03-16T02:07:34;7.75;;;4.13;;
75427;SDS011;64008;55.612;37.698;2023-03-16T02:10:06;8.77;;;4.68;;
75427;SDS011;64008;55.612;37.698;2023-03-16T02:12:33;7.50;;;3.78;;
75427;SDS011;64008;55.612;37.698;2023-03-16T02:14:59;8.13;;;4.72;;
75427;SDS011;64008;55.612;37.698;2023-03-16T02:17:26;7.47;;;4.15;;
75427;SDS011;64008;55.612;37.698;2023-03-16T02:22:49;6.68;;;4.22;;
75427;SDS011;64008;55.612;37.698;2023-03-16T02:25:20;7.30;;;3.63;;
75427;SDS011;64008;55.612;37.698;2023-03-16T02:30:39;7.95;;;4.60;;
75427;SDS011;64008;55.612;37.698;2023-03-16T02:33:05;9.80;;;4.40;;
75427;SDS011;64008;55.612;37.698;2023-03-16T02:35:31;8.50;;;4.10;;
75427;SDS011;64008;55.612;37.698;2023-03-16T02:37:57;8.80;;;3.85;;
75427;SDS011;64008;55.612;37.698;2023-03-16T02:40:24;7.90;;;3.55;;
75427;SDS011;64008;55.612;37.698;2023-03-16T02:45:38;10.50;;;3.92;;
75427;SDS011;64008;55.612;37.698;2023-03-16T02:48:11;7.35;;;3.70;;
75427;SDS011;64008;55.612;37.698;2023-03-16T02:53:12;6.13;;;3.22;;
75427;SDS011;64008;55.612;37.698;2023-03-16T02:55:39;7.05;;;4.43;;
75427;SDS011;64008;55.612;37.698;2023-03-16T02:58:04;6.65;;;3.75;;
75427;SDS011;64008;55.612;37.698;2023-03-16T03:00:30;6.82;;;3.38;;
75427;SDS011;64008;55.612;37.698;2023-03-16T03:02:56;6.82;;;3.33;;
75427;SDS011;64008;55.612;37.698;2023-03-16T03:05:22;7.75;;;3.30;;
75427;SDS011;64008;55.612;37.698;2023-03-16T03:07:48;9.02;;;3.65;;
75427;SDS011;64008;55.612;37.698;2023-03-16T03:10:14;6.72;;;3.60;;
75427;SDS011;64008;55.612;37.698;2023-03-16T03:12:40;8.13;;;4.47;;
75427;SDS011;64008;55.612;37.698;2023-03-16T03:15:06;6.60;;;3.67;;
75427;SDS011;64008;55.612;37.698;2023-03-16T03:17:32;7.45;;;3.35;;
75427;SDS011;64008;55.612;37.698;2023-03-16T03:19:58;9.43;;;3.70;;
75427;SDS011;64008;55.612;37.698;2023-03-16T03:22:30;7.22;;;3.47;;
75427;SDS011;64008;55.612;37.698;2023-03-16T03:24:55;7.63;;;3.67;;
75427;SDS011;64008;55.612;37.698;2023-03-16T03:27:21;7.32;;;3.47;;
75427;SDS011;64008;55.612;37.698;2023-03-16T03:29:47;10.10;;;3.40;;
75427;SDS011;64008;55.612;37.698;2023-03-16T03:32:12;7.93;;;3.33;;
75427;SDS011;64008;55.612;37.698;2023-03-16T03:34:38;9.30;;;3.42;;
75427;SDS011;64008;55.612;37.698;2023-03-16T03:37:04;7.07;;;3.17;;
75427;SDS011;64008;55.612;37.698;2023-03-16T03:39:29;10.05;;;3.38;;
75427;SDS011;64008;55.612;37.698;2023-03-16T03:41:55;7.47;;;3.65;;
75427;SDS011;64008;55.612;37.698;2023-03-16T03:44:21;8.07;;;3.30;;
75427;SDS011;64008;55.612;37.698;2023-03-16T03:46:47;8.95;;;4.00;;
75427;SDS011;64008;55.612;37.698;2023-03-16T03:49:13;6.57;;;3.55;;
75427;SDS011;64008;55.612;37.698;2023-03-16T03:51:39;6.05;;;3.15;;
75427;SDS011;64008;55.612;37.698;2023-03-16T03:54:05;9.05;;;3.38;;
75427;SDS011;64008;55.612;37.698;2023-03-16T03:56:31;8.80;;;3.50;;
75427;SDS011;64008;55.612;37.698;2023-03-16T03:58:56;6.03;;;3.03;;
75427;SDS011;64008;55.612;37.698;2023-03-16T04:01:22;9.70;;;4.30;;
75427;SDS011;64008;55.612;37.698;2023-03-16T04:03:47;9.15;;;4.20;;
75427;SDS011;64008;55.612;37.698;2023-03-16T04:06:13;10.55;;;4.18;;
75427;SDS011;64008;55.612;37.698;2023-03-16T04:08:39;8.38;;;5.13;;
75427;SDS011;64008;55.612;37.698;2023-03-16T04:11:04;7.65;;;4.07;;
75427;SDS011;64008;55.612;37.698;2023-03-16T04:13:30;9.35;;;3.58;;
75427;SDS011;64008;55.612;37.698;2023-03-16T04:15:59;12.65;;;3.83;;
75427;SDS011;64008;55.612;37.698;2023-03-16T04:20:54;6.20;;;2.75;;
75427;SDS011;64008;55.612;37.698;2023-03-16T04:23:20;5.32;;;2.80;;
75427;SDS011;64008;55.612;37.698;2023-03-16T04:25:46;7.53;;;3.17;;
75427;SDS011;64008;55.612;37.698;2023-03-16T04:28:11;5.97;;;3.33;;
75427;SDS011;64008;55.612;37.698;2023-03-16T04:30:37;6.57;;;3.22;;
75427;SDS011;64008;55.612;37.698;2023-03-16T04:33:03;8.73;;;3.42;;
75427;SDS011;64008;55.612;37.698;2023-03-16T04:35:28;9.02;;;3.33;;
75427;SDS011;64008;55.612;37.698;2023-03-16T04:37:55;7.10;;;3.17;;
75427;SDS011;64008;55.612;37.698;2023-03-16T04:40:21;6.57;;;3.13;;
75427;SDS011;64008;55.612;37.698;2023-03-16T04:42:48;9.30;;;2.70;;
75427;SDS011;64008;55.612;37.698;2023-03-16T04:45:14;5.95;;;2.67;;
75427;SDS011;64008;55.612;37.698;2023-03-16T04:47:41;9.15;;;2.83;;
75427;SDS011;64008;55.612;37.698;2023-03-16T04:50:07;9.55;;;3.33;;
75427;SDS011;64008;55.612;37.698;2023-03-16T04:52:34;7.60;;;3.03;;
75427;SDS011;64008;55.612;37.698;2023-03-16T04:55:00;8.75;;;3.13;;
75427;SDS011;64008;55.612;37.698;2023-03-16T04:57:25;7.63;;;3.05;;
75427;SDS011;64008;55.612;37.698;2023-03-16T04:59:51;6.53;;;3.42;;
75427;SDS011;64008;55.612;37.698;2023-03-16T05:02:16;7.78;;;3.17;;
75427;SDS011;64008;55.612;37.698;2023-03-16T05:04:44;6.25;;;2.67;;
75427;SDS011;64008;55.612;37.698;2023-03-16T05:07:09;6.18;;;2.80;;
75427;SDS011;64008;55.612;37.698;2023-03-16T05:09:35;7.30;;;2.88;;
75427;SDS011;64008;55.612;37.698;2023-03-16T05:12:01;5.97;;;3.03;;
75427;SDS011;64008;55.612;37.698;2023-03-16T05:14:26;7.35;;;3.42;;
75427;SDS011;64008;55.612;37.698;2023-03-16T05:16:52;5.53;;;2.70;;
75427;SDS011;64008;55.612;37.698;2023-03-16T05:19:17;6.55;;;2.95;;
75427;SDS011;64008;55.612;37.698;2023-03-16T05:21:43;5.80;;;2.97;;
75427;SDS011;64008;55.612;37.698;2023-03-16T05:24:10;6.80;;;3.15;;
75427;SDS011;64008;55.612;37.698;2023-03-16T05:26:36;5.78;;;2.60;;
75427;SDS011;64008;55.612;37.698;2023-03-16T05:29:02;7.10;;;3.03;;
75427;SDS011;64008;55.612;37.698;2023-03-16T05:31:28;5.90;;;3.00;;
75427;SDS011;64008;55.612;37.698;2023-03-16T05:33:57;6.93;;;2.45;;
75427;SDS011;64008;55.612;37.698;2023-03-16T05:36:22;6.05;;;2.75;;
75427;SDS011;64008;55.612;37.698;2023-03-16T05:38:49;6.50;;;2.85;;
75427;SDS011;64008;55.612;37.698;2023-03-16T05:43:42;18.88;;;4.45;;
75427;SDS011;64008;55.612;37.698;2023-03-16T05:46:08;28.05;;;5.15;;
75427;SDS011;64008;55.612;37.698;2023-03-16T05:48:34;22.63;;;5.05;;
75427;SDS011;64008;55.612;37.698;2023-03-16T05:50:59;29.58;;;5.47;;
75427;SDS011;64008;55.612;37.698;2023-03-16T05:53:25;32.60;;;5.28;;
75427;SDS011;64008;55.612;37.698;2023-03-16T05:55:52;16.67;;;5.07;;
75427;SDS011;64008;55.612;37.698;2023-03-16T05:58:18;21.08;;;5.18;;
75427;SDS011;64008;55.612;37.698;2023-03-16T06:00:43;17.58;;;4.65;;
75427;SDS011;64008;55.612;37.698;2023-03-16T06:03:09;14.20;;;4.68;;
75427;SDS011;64008;55.612;37.698;2023-03-16T06:05:34;17.02;;;6.25;;
75427;SDS011;64008;55.612;37.698;2023-03-16T06:08:00;16.15;;;6.03;;
75427;SDS011;64008;55.612;37.698;2023-03-16T06:10:26;15.75;;;4.97;;
75427;SDS011;64008;55.612;37.698;2023-03-16T06:12:52;16.73;;;4.10;;
75427;SDS011;64008;55.612;37.698;2023-03-16T06:15:17;14.68;;;4.47;;
75427;SDS011;64008;55.612;37.698;2023-03-16T06:17:43;11.32;;;4.10;;
75427;SDS011;64008;55.612;37.698;2023-03-16T06:20:09;9.50;;;3.30;;
75427;SDS011;64008;55.612;37.698;2023-03-16T06:22:37;10.65;;;4.13;;
75427;SDS011;64008;55.612;37.698;2023-03-16T06:25:04;10.93;;;3.67;;
75427;SDS011;64008;55.612;37.698;2023-03-16T06:27:30;10.73;;;3.60;;
75427;SDS011;64008;55.612;37.698;2023-03-16T06:29:55;8.52;;;3.15;;
75427;SDS011;64008;55.612;37.698;2023-03-16T06:32:21;9.13;;;3.22;;
75427;SDS011;64008;55.612;37.698;2023-03-16T06:34:46;9.20;;;3.90;;
75427;SDS011;64008;55.612;37.698;2023-03-16T06:37:12;9.80;;;3.20;;
75427;SDS011;64008;55.612;37.698;2023-03-16T06:39:38;7.97;;;3.67;;
75427;SDS011;64008;55.612;37.698;2023-03-16T06:42:04;7.97;;;3.28;;
75427;SDS011;64008;55.612;37.698;2023-03-16T06:44:30;10.77;;;3.47;;
75427;SDS011;64008;55.612;37.698;2023-03-16T06:46:56;9.05;;;3.45;;
75427;SDS011;64008;55.612;37.698;2023-03-16T06:49:22;9.38;;;3.75;;
75427;SDS011;64008;55.612;37.698;2023-03-16T06:51:47;9.32;;;3.35;;
75427;SDS011;64008;55.612;37.698;2023-03-16T06:54:13;8.38;;;3.17;;
75427;SDS011;64008;55.612;37.698;2023-03-16T06:56:39;9.45;;;3.30;;
75427;SDS011;64008;55.612;37.698;2023-03-16T06:59:04;8.88;;;3.25;;
75427;SDS011;64008;55.612;37.698;2023-03-16T07:01:30;8.93;;;2.88;;
75427;SDS011;64008;55.612;37.698;2023-03-16T07:03:55;6.03;;;2.85;;
75427;SDS011;64008;55.612;37.698;2023-03-16T07:06:21;7.73;;;3.00;;
75427;SDS011;64008;55.612;37.698;2023-03-16T07:08:47;8.43;;;3.15;;
75427;SDS011;64008;55.612;37.698;2023-03-16T07:11:12;7.20;;;3.10;;
75427;SDS011;64008;55.612;37.698;2023-03-16T07:13:39;5.55;;;2.22;;
75427;SDS011;64008;55.612;37.698;2023-03-16T07:16:05;6.72;;;3.03;;
75427;SDS011;64008;55.612;37.698;2023-03-16T07:18:31;5.60;;;2.70;;
75427;SDS011;64008;55.612;37.698;2023-03-16T07:20:57;6.22;;;2.72;;
75427;SDS011;64008;55.612;37.698;2023-03-16T07:23:22;6.30;;;2.78;;
75427;SDS011;64008;55.612;37.698;2023-03-16T07:25:49;6.55;;;2.92;;
75427;SDS011;64008;55.612;37.698;2023-03-16T07:28:16;6.93;;;3.08;;
75427;SDS011;64008;55.612;37.698;2023-03-16T07:30:45;6.13;;;2.60;;
75427;SDS011;64008;55.612;37.698;2023-03-16T07:33:11;7.00;;;2.55;;
75427;SDS011;64008;55.612;37.698;2023-03-16T07:35:37;6.55;;;2.90;;
75427;SDS011;64008;55.612;37.698;2023-03-16T07:38:02;7.97;;;2.72;;
75427;SDS011;64008;55.612;37.698;2023-03-16T07:40:28;7.72;;;2.67;;
75427;SDS011;64008;55.612;37.698;2023-03-16T07:42:54;8.45;;;2.75;;
75427;SDS011;64008;55.612;37.698;2023-03-16T07:45:19;6.80;;;2.72;;
75427;SDS011;64008;55.612;37.698;2023-03-16T07:47:45;6.47;;;2.97;;
75427;SDS011;64008;55.612;37.698;2023-03-16T07:50:11;6.13;;;2.75;;
75427;SDS011;64008;55.612;37.698;2023-03-16T07:52:39;7.72;;;3.03;;
75427;SDS011;64008;55.612;37.698;2023-03-16T07:55:05;7.18;;;3.10;;
75427;SDS011;64008;55.612;37.698;2023-03-16T07:57:31;5.40;;;2.92;;
75427;SDS011;64008;55.612;37.698;2023-03-16T07:59:56;5.22;;;2.65;;
75427;SDS011;64008;55.612;37.698;2023-03-16T08:02:23;6.97;;;3.33;;
75427;SDS011;64008;55.612;37.698;2023-03-16T08:04:48;8.80;;;4.57;;
75427;SDS011;64008;55.612;37.698;2023-03-16T08:07:14;8.95;;;4.82;;
75427;SDS011;64008;55.612;37.698;2023-03-16T08:09:40;8.77;;;4.00;;
75427;SDS011;64008;55.612;37.698;2023-03-16T08:12:06;6.25;;;3.10;;
75427;SDS011;64008;55.612;37.698;2023-03-16T08:14:33;8.20;;;3.22;;
75427;SDS011;64008;55.612;37.698;2023-03-16T08:17:03;5.70;;;2.60;;
75427;SDS011;64008;55.612;37.698;2023-03-16T08:19:30;6.63;;;3.00;;
75427;SDS011;64008;55.612;37.698;2023-03-16T08:21:56;6.90;;;3.28;;
75427;SDS011;64008;55.612;37.698;2023-03-16T08:24:25;6.60;;;3.30;;
75427;SDS011;64008;55.612;37.698;2023-03-16T08:26:51;6.70;;;3.38;;
75427;SDS011;64008;55.612;37.698;2023-03-16T08:29:17;5.90;;;2.80;;
75427;SDS011;64008;55.612;37.698;2023-03-16T08:31:43;9.80;;;4.93;;
75427;SDS011;64008;55.612;37.698;2023-03-16T08:34:09;6.15;;;3.30;;
75427;SDS011;64008;55.612;37.698;2023-03-16T08:36:35;6.25;;;3.05;;
75427;SDS011;64008;55.612;37.698;2023-03-16T08:39:02;6.70;;;3.05;;
75427;SDS011;64008;55.612;37.698;2023-03-16T08:41:30;6.32;;;3.35;;
75427;SDS011;64008;55.612;37.698;2023-03-16T08:43:57;7.03;;;3.13;;
75427;SDS011;64008;55.612;37.698;2023-03-16T08:46:23;8.48;;;4.78;;
75427;SDS011;64008;55.612;37.698;2023-03-16T08:48:48;6.70;;;3.25;;
75427;SDS011;64008;55.612;37.698;2023-03-16T08:51:14;7.13;;;3.55;;
75427;SDS011;64008;55.612;37.698;2023-03-16T08:53:41;7.88;;;3.70;;
75427;SDS011;64008;55.612;37.698;2023-03-16T08:58:35;5.88;;;3.08;;
75427;SDS011;64008;55.612;37.698;2023-03-16T09:01:01;6.00;;;3.20;;
75427;SDS011;64008;55.612;37.698;2023-03-16T09:03:29;5.95;;;3.28;;
75427;SDS011;64008;55.612;37.698;2023-03-16T09:06:00;6.00;;;3.13;;
75427;SDS011;64008;55.612;37.698;2023-03-16T09:08:27;9.82;;;5.70;;
75427;SDS011;64008;55.612;37.698;2023-03-16T09:11:03;7.53;;;3.25;;
75427;SDS011;64008;55.612;37.698;2023-03-16T09:13:31;5.18;;;3.05;;
75427;SDS011;64008;55.612;37.698;2023-03-16T09:15:57;7.05;;;3.40;;
75427;SDS011;64008;55.612;37.698;2023-03-16T09:18:23;6.22;;;3.42;;
75427;SDS011;64008;55.612;37.698;2023-03-16T09:21:00;6.97;;;3.70;;
75427;SDS011;64008;55.612;37.698;2023-03-16T09:23:28;6.00;;;3.70;;
75427;SDS011;64008;55.612;37.698;2023-03-16T09:28:24;5.63;;;2.72;;
75427;SDS011;64008;55.612;37.698;2023-03-16T09:30:52;5.85;;;3.25;;
75427;SDS011;64008;55.612;37.698;2023-03-16T09:33:21;7.05;;;3.40;;
75427;SDS011;64008;55.612;37.698;2023-03-16T09:35:48;7.25;;;3.35;;
75427;SDS011;64008;55.612;37.698;2023-03-16T09:38:14;5.55;;;3.08;;
75427;SDS011;64008;55.612;37.698;2023-03-16T09:40:41;5.78;;;2.85;;
75427;SDS011;64008;55.612;37.698;2023-03-16T09:43:32;5.88;;;2.90;;
75427;SDS011;64008;55.612;37.698;2023-03-16T09:48:42;5.55;;;3.47;;
75427;SDS011;64008;55.612;37.698;2023-03-16T09:54:00;4.90;;;2.78;;
75427;SDS011;64008;55.612;37.698;2023-03-16T09:56:39;6.07;;;3.15;;
75427;SDS011;64008;55.612;37.698;2023-03-16T09:59:11;5.30;;;2.60;;
75427;SDS011;64008;55.612;37.698;2023-03-16T10:12:38;6.63;;;3.25;;
75427;SDS011;64008;55.612;37.698;2023-03-16T10:15:17;5.30;;;2.95;;
75427;SDS011;64008;55.612;37.698;2023-03-16T10:17:46;7.25;;;3.25;;
75427;SDS011;64008;55.612;37.698;2023-03-16T10:20:26;4.82;;;2.92;;
75427;SDS011;64008;55.612;37.698;2023-03-16T10:22:57;6.20;;;3.17;;
75427;SDS011;64008;55.612;37.698;2023-03-16T10:25:42;5.72;;;3.13;;
75427;SDS011;64008;55.612;37.698;2023-03-16T10:28:20;6.10;;;3.22;;
75427;SDS011;64008;55.612;37.698;2023-03-16T10:30:49;5.93;;;3.20;;
75427;SDS011;64008;55.612;37.698;2023-03-16T10:33:27;4.93;;;2.85;;
75427;SDS011;64008;55.612;37.698;2023-03-16T10:36:12;5.78;;;3.22;;
75427;SDS011;64008;55.612;37.698;2023-03-16T10:38:47;5.60;;;3.08;;
75427;SDS011;64008;55.612;37.698;2023-03-16T10:46:15;6.43;;;3.28;;
75427;SDS011;64008;55.612;37.698;2023-03-16T10:48:50;8.32;;;3.90;;
75427;SDS011;64008;55.612;37.698;2023-03-16T10:51:29;6.40;;;3.30;;
75427;SDS011;64008;55.612;37.698;2023-03-16T10:54:06;9.35;;;3.80;;
75427;SDS011;64008;55.612;37.698;2023-03-16T10:56:38;8.40;;;3.63;;
75427;SDS011;64008;55.612;37.698;2023-03-16T11:02:15;6.32;;;3.38;;
75427;SDS011;64008;55.612;37.698;2023-03-16T11:04:47;7.70;;;3.72;;
75427;SDS011;64008;55.612;37.698;2023-03-16T11:07:16;7.65;;;3.42;;
75427;SDS011;64008;55.612;37.698;2023-03-16T11:09:44;6.55;;;3.78;;
75427;SDS011;64008;55.612;37.698;2023-03-16T11:14:46;7.53;;;3.85;;
75427;SDS011;64008;55.612;37.698;2023-03-16T11:17:33;7.97;;;4.07;;
75427;SDS011;64008;55.612;37.698;2023-03-16T11:22:36;7.55;;;4.35;;
75427;SDS011;64008;55.612;37.698;2023-03-16T11:33:01;18.15;;;9.35;;
75427;SDS011;64008;55.612;37.698;2023-03-16T11:35:32;9.18;;;4.70;;
75427;SDS011;64008;55.612;37.698;2023-03-16T11:48:49;9.85;;;6.38;;
75427;SDS011;64008;55.612;37.698;2023-03-16T11:51:44;11.45;;;6.65;;
75427;SDS011;64008;55.612;37.698;2023-03-16T11:57:02;13.40;;;6.72;;
75427;SDS011;64008;55.612;37.698;2023-03-16T12:05:29;12.98;;;6.55;;
75427;SDS011;64008;55.612;37.698;2023-03-16T12:22:20;11.23;;;6.60;;
75427;SDS011;64008;55.612;37.698;2023-03-16T12:24:47;10.82;;;5.90;;
75427;SDS011;64008;55.612;37.698;2023-03-16T12:27:14;11.27;;;5.75;;
75427;SDS011;64008;55.612;37.698;2023-03-16T12:35:59;10.02;;;5.55;;
75427;SDS011;64008;55.612;37.698;2023-03-16T12:38:49;7.75;;;5.22;;
75427;SDS011;64008;55.612;37.698;2023-03-16T12:44:16;10.27;;;5.82;;
75427;SDS011;64008;55.612;37.698;2023-03-16T12:46:58;10.48;;;5.68;;
75427;SDS011;64008;55.612;37.698;2023-03-16T12:49:32;8.13;;;5.07;;
75427;SDS011;64008;55.612;37.698;2023-03-16T12:52:08;8.60;;;5.15;;
75427;SDS011;64008;55.612;37.698;2023-03-16T12:54:36;8.57;;;4.85;;
75427;SDS011;64008;55.612;37.698;2023-03-16T12:57:14;8.80;;;5.00;;
75427;SDS011;64008;55.612;37.698;2023-03-16T12:59:44;9.32;;;5.32;;
75427;SDS011;64008;55.612;37.698;2023-03-16T13:02:18;9.00;;;5.40;;
75427;SDS011;64008;55.612;37.698;2023-03-16T13:04:47;9.38;;;5.38;;
75427;SDS011;64008;55.612;37.698;2023-03-16T13:07:23;10.02;;;4.88;;
75427;SDS011;64008;55.612;37.698;2023-03-16T13:09:58;14.93;;;5.65;;
75427;SDS011;64008;55.612;37.698;2023-03-16T13:12:30;9.80;;;5.20;;
75427;SDS011;64008;55.612;37.698;2023-03-16T13:15:00;9.38;;;4.82;;
75427;SDS011;64008;55.612;37.698;2023-03-16T13:17:30;9.38;;;4.68;;
75427;SDS011;64008;55.612;37.698;2023-03-16T13:19:58;10.13;;;5.32;;
75427;SDS011;64008;55.612;37.698;2023-03-16T13:22:41;8.75;;;4.68;;
75427;SDS011;64008;55.612;37.698;2023-03-16T13:27:51;8.13;;;4.65;;
75427;SDS011;64008;55.612;37.698;2023-03-16T13:32:47;10.82;;;5.25;;
75427;SDS011;64008;55.612;37.698;2023-03-16T13:35:18;9.75;;;5.43;;
75427;SDS011;64008;55.612;37.698;2023-03-16T13:37:45;8.70;;;4.65;;
75427;SDS011;64008;55.612;37.698;2023-03-16T13:40:18;10.57;;;5.55;;
75427;SDS011;64008;55.612;37.698;2023-03-16T13:42:47;10.50;;;5.38;;
75427;SDS011;64008;55.612;37.698;2023-03-16T13:45:18;10.50;;;5.00;;
75427;SDS011;64008;55.612;37.698;2023-03-16T13:47:46;7.90;;;4.53;;
75427;SDS011;64008;55.612;37.698;2023-03-16T13:50:14;9.57;;;5.22;;
75427;SDS011;64008;55.612;37.698;2023-03-16T13:52:40;9.50;;;5.30;;
75427;SDS011;64008;55.612;37.698;2023-03-16T13:55:13;18.42;;;9.43;;
75427;SDS011;64008;55.612;37.698;2023-03-16T13:57:41;10.63;;;6.03;;
75427;SDS011;64008;55.612;37.698;2023-03-16T14:02:45;11.02;;;5.68;;
75427;SDS011;64008;55.612;37.698;2023-03-16T14:05:55;10.23;;;5.00;;
75427;SDS011;64008;55.612;37.698;2023-03-16T14:08:02;8.95;;;5.35;;
75427;SDS011;64008;55.612;37.698;2023-03-16T14:10:32;10.75;;;6.00;;
75427;SDS011;64008;55.612;37.698;2023-03-16T14:13:07;10.30;;;5.82;;
75427;SDS011;64008;55.612;37.698;2023-03-16T14:15:46;12.60;;;6.18;;
75427;SDS011;64008;55.612;37.698;2023-03-16T14:18:16;12.18;;;5.95;;
75427;SDS011;64008;55.612;37.698;2023-03-16T14:20:46;11.05;;;5.85;;
75427;SDS011;64008;55.612;37.698;2023-03-16T14:23:20;10.77;;;5.18;;
75427;SDS011;64008;55.612;37.698;2023-03-16T14:25:48;8.20;;;5.03;;
75427;SDS011;64008;55.612;37.698;2023-03-16T14:28:15;9.75;;;5.80;;
75427;SDS011;64008;55.612;37.698;2023-03-16T14:30:53;8.68;;;5.50;;
75427;SDS011;64008;55.612;37.698;2023-03-16T14:33:32;9.43;;;5.15;;
75427;SDS011;64008;55.612;37.698;2023-03-16T14:36:17;10.25;;;5.93;;
75427;SDS011;64008;55.612;37.698;2023-03-16T14:38:44;9.85;;;5.50;;
75427;SDS011;64008;55.612;37.698;2023-03-16T14:43:45;9.55;;;5.65;;
75427;SDS011;64008;55.612;37.698;2023-03-16T14:46:38;10.43;;;6.13;;
75427;SDS011;64008;55.612;37.698;2023-03-16T14:49:06;11.48;;;5.60;;
75427;SDS011;64008;55.612;37.698;2023-03-16T14:51:33;12.10;;;6.18;;
75427;SDS011;64008;55.612;37.698;2023-03-16T14:54:04;10.88;;;6.07;;
75427;SDS011;64008;55.612;37.698;2023-03-16T14:56:40;10.10;;;4.95;;
75427;SDS011;64008;55.612;37.698;2023-03-16T14:59:07;8.73;;;5.45;;
75427;SDS011;64008;55.612;37.698;2023-03-16T15:01:33;8.63;;;5.10;;
75427;SDS011;64008;55.612;37.698;2023-03-16T15:03:59;10.20;;;5.80;;
75427;SDS011;64008;55.612;37.698;2023-03-16T15:06:25;11.82;;;6.13;;
75427;SDS011;64008;55.612;37.698;2023-03-16T15:08:51;9.75;;;5.40;;
75427;SDS011;64008;55.612;37.698;2023-03-16T15:11:18;9.05;;;5.43;;
75427;SDS011;64008;55.612;37.698;2023-03-16T15:13:48;10.98;;;5.40;;
75427;SDS011;64008;55.612;37.698;2023-03-16T15:16:14;10.38;;;5.57;;
75427;SDS011;64008;55.612;37.698;2023-03-16T15:18:40;12.93;;;5.80;;
75427;SDS011;64008;55.612;37.698;2023-03-16T15:21:10;11.25;;;6.88;;
75427;SDS011;64008;55.612;37.698;2023-03-16T15:23:41;60.28;;;25.92;;
75427;SDS011;64008;55.612;37.698;2023-03-16T15:26:08;15.90;;;8.73;;
75427;SDS011;64008;55.612;37.698;2023-03-16T15:28:36;14.10;;;7.80;;
75427;SDS011;64008;55.612;37.698;2023-03-16T15:31:02;13.13;;;7.18;;
75427;SDS011;64008;55.612;37.698;2023-03-16T15:33:28;14.48;;;7.38;;
75427;SDS011;64008;55.612;37.698;2023-03-16T15:35:56;14.40;;;7.25;;
75427;SDS011;64008;55.612;37.698;2023-03-16T15:38:24;13.73;;;6.78;;
75427;SDS011;64008;55.612;37.698;2023-03-16T15:40:52;11.18;;;6.38;;
75427;SDS011;64008;55.612;37.698;2023-03-16T15:43:20;13.18;;;7.00;;
75427;SDS011;64008;55.612;37.698;2023-03-16T15:45:51;13.10;;;7.43;;
75427;SDS011;64008;55.612;37.698;2023-03-16T15:48:18;13.20;;;7.18;;
75427;SDS011;64008;55.612;37.698;2023-03-16T15:50:52;12.40;;;7.32;;
75427;SDS011;64008;55.612;37.698;2023-03-16T15:55:52;12.48;;;6.82;;
75427;SDS011;64008;55.612;37.698;2023-03-16T15:58:23;13.80;;;7.20;;
75427;SDS011;64008;55.612;37.698;2023-03-16T16:00:54;14.18;;;7.70;;
75427;SDS011;64008;55.612;37.698;2023-03-16T16:03:21;13.70;;;7.32;;
75427;SDS011;64008;55.612;37.698;2023-03-16T16:05:48;12.43;;;7.15;;
75427;SDS011;64008;55.612;37.698;2023-03-16T16:08:14;12.52;;;7.30;;
75427;SDS011;64008;55.612;37.698;2023-03-16T16:10:40;12.25;;;7.75;;
75427;SDS011;64008;55.612;37.698;2023-03-16T16:15:51;11.85;;;6.88;;
75427;SDS011;64008;55.612;37.698;2023-03-16T16:20:59;14.02;;;7.10;;
75427;SDS011;64008;55.612;37.698;2023-03-16T16:23:26;11.27;;;6.72;;
75427;SDS011;64008;55.612;37.698;2023-03-16T16:25:54;11.13;;;6.38;;
75427;SDS011;64008;55.612;37.698;2023-03-16T16:28:23;12.45;;;6.60;;
75427;SDS011;64008;55.612;37.698;2023-03-16T16:30:55;11.25;;;6.53;;
75427;SDS011;64008;55.612;37.698;2023-03-16T16:33:22;13.13;;;6.20;;
75427;SDS011;64008;55.612;37.698;2023-03-16T16:35:49;11.23;;;5.93;;
75427;SDS011;64008;55.612;37.698;2023-03-16T16:38:14;15.93;;;7.68;;
75427;SDS011;64008;55.612;37.698;2023-03-16T16:40:40;10.65;;;6.07;;
75427;SDS011;64008;55.612;37.698;2023-03-16T16:43:10;10.32;;;6.10;;
75427;SDS011;64008;55.612;37.698;2023-03-16T16:45:47;11.93;;;5.32;;